GIA6107 WIMM-OEMA
Flight info
| Callsign | GIA6107 |
|---|---|
| Flight time | N/A |
| Altitude | 34000 |
| Route | BULVA M300 ORISA/N0478F360 M300 LOTAV N569 TOKRA/N0437F280 Y511 ITRUX/N0472F360 Y511 ELONU |
| Aircraft | A333/H-SDE1E2E3FGHIJ1J4J5M1P2RWXY/HB1D1 |
Departure
| Time | 2026-04-24 04:33 |
|---|---|
| Airport | Kualanamu International Airport (WIMM) |
Arrival
| Time | N/A |
|---|---|
| Airport | Prince Mohammad Bin Abdulaziz Airport (OEMA) |
| Time | Latitude | Longitude | Altitude | Speed | Heading |
|---|---|---|---|---|---|
| 2026-04-24 04:16 | 3.63866 | 98.87869 | 44 ft | 0 kts | 225° |
| 2026-04-24 04:17 | 3.63868 | 98.87871 | 44 ft | 3 kts | 225° |
| 2026-04-24 04:18 | 3.63887 | 98.87890 | 44 ft | 4 kts | 224° |
| 2026-04-24 04:18 | 3.63902 | 98.87905 | 44 ft | 4 kts | 231° |
| 2026-04-24 04:18 | 3.63913 | 98.87926 | 43 ft | 4 kts | 283° |
| 2026-04-24 04:18 | 3.63901 | 98.87945 | 44 ft | 4 kts | 315° |
| 2026-04-24 04:19 | 3.63881 | 98.87964 | 44 ft | 4 kts | 315° |
| 2026-04-24 04:19 | 3.63864 | 98.87982 | 44 ft | 2 kts | 315° |
| 2026-04-24 04:19 | 3.63863 | 98.87982 | 41 ft | 0 kts | 315° |
| 2026-04-24 04:22 | 3.63870 | 98.87976 | 43 ft | 2 kts | 320° |
| 2026-04-24 04:22 | 3.63890 | 98.87968 | 44 ft | 4 kts | 343° |
| 2026-04-24 04:22 | 3.63925 | 98.87974 | 44 ft | 7 kts | 21° |
| 2026-04-24 04:22 | 3.63964 | 98.88003 | 44 ft | 8 kts | 43° |
| 2026-04-24 04:23 | 3.64010 | 98.88049 | 42 ft | 11 kts | 45° |
| 2026-04-24 04:23 | 3.64063 | 98.88102 | 44 ft | 11 kts | 45° |
| 2026-04-24 04:23 | 3.64122 | 98.88139 | 44 ft | 9 kts | 1° |
| 2026-04-24 04:23 | 3.64178 | 98.88101 | 44 ft | 11 kts | 316° |
| 2026-04-24 04:24 | 3.64237 | 98.88043 | 44 ft | 13 kts | 315° |
| 2026-04-24 04:24 | 3.64294 | 98.87973 | 43 ft | 13 kts | 286° |
| 2026-04-24 04:24 | 3.64250 | 98.87900 | 43 ft | 13 kts | 226° |
| 2026-04-24 04:24 | 3.64181 | 98.87831 | 42 ft | 15 kts | 225° |
| 2026-04-24 04:25 | 3.64109 | 98.87759 | 43 ft | 15 kts | 225° |
| 2026-04-24 04:25 | 3.64037 | 98.87688 | 43 ft | 14 kts | 225° |
| 2026-04-24 04:25 | 3.63967 | 98.87619 | 43 ft | 14 kts | 225° |
| 2026-04-24 04:25 | 3.63898 | 98.87550 | 43 ft | 14 kts | 225° |
| 2026-04-24 04:26 | 3.63830 | 98.87483 | 43 ft | 14 kts | 225° |
| 2026-04-24 04:26 | 3.63764 | 98.87416 | 43 ft | 13 kts | 225° |
| 2026-04-24 04:26 | 3.63700 | 98.87352 | 43 ft | 13 kts | 225° |
| 2026-04-24 04:26 | 3.63636 | 98.87288 | 43 ft | 13 kts | 225° |
| 2026-04-24 04:27 | 3.63624 | 98.87215 | 43 ft | 11 kts | 297° |
| 2026-04-24 04:27 | 3.63617 | 98.87148 | 43 ft | 10 kts | 236° |
| 2026-04-24 04:27 | 3.63564 | 98.87091 | 43 ft | 12 kts | 225° |
| 2026-04-24 04:27 | 3.63500 | 98.87026 | 43 ft | 15 kts | 225° |
| 2026-04-24 04:28 | 3.63425 | 98.86952 | 41 ft | 15 kts | 225° |
| 2026-04-24 04:28 | 3.63351 | 98.86879 | 42 ft | 15 kts | 225° |
| 2026-04-24 04:28 | 3.63277 | 98.86806 | 42 ft | 15 kts | 225° |
| 2026-04-24 04:28 | 3.63202 | 98.86731 | 42 ft | 15 kts | 225° |
| 2026-04-24 04:29 | 3.63126 | 98.86655 | 42 ft | 17 kts | 225° |
| 2026-04-24 04:29 | 3.63033 | 98.86562 | 43 ft | 20 kts | 225° |
| 2026-04-24 04:29 | 3.62936 | 98.86466 | 43 ft | 19 kts | 225° |
| 2026-04-24 04:29 | 3.62843 | 98.86374 | 42 ft | 18 kts | 225° |
| 2026-04-24 04:30 | 3.62753 | 98.86284 | 43 ft | 18 kts | 225° |
| 2026-04-24 04:30 | 3.62665 | 98.86197 | 43 ft | 18 kts | 225° |
| 2026-04-24 04:30 | 3.62606 | 98.86139 | 43 ft | 17 kts | 225° |
| 2026-04-24 04:30 | 3.62526 | 98.86056 | 43 ft | 16 kts | 230° |
| 2026-04-24 04:31 | 3.62512 | 98.85957 | 40 ft | 15 kts | 296° |
| 2026-04-24 04:31 | 3.62584 | 98.85888 | 39 ft | 9 kts | 334° |
| 2026-04-24 04:31 | 3.62614 | 98.85896 | 40 ft | 4 kts | 30° |
| 2026-04-24 04:31 | 3.62635 | 98.85915 | 40 ft | 4 kts | 45° |
| 2026-04-24 04:32 | 3.62674 | 98.85954 | 41 ft | 20 kts | 45° |
| 2026-04-24 04:32 | 3.62911 | 98.86191 | 42 ft | 76 kts | 45° |
| 2026-04-24 04:32 | 3.63416 | 98.86692 | 39 ft | 127 kts | 44° |
| 2026-04-24 04:32 | 3.64154 | 98.87425 | 39 ft | 172 kts | 45° |
| 2026-04-24 04:33 | 3.65062 | 98.88333 | 407 ft | 187 kts | 45° |
| 2026-04-24 04:33 | 3.66006 | 98.89200 | 1104 ft | 185 kts | 32° |
| 2026-04-24 04:33 | 3.67260 | 98.89385 | 1700 ft | 189 kts | 343° |
| 2026-04-24 04:33 | 3.68347 | 98.88609 | 2013 ft | 202 kts | 309° |
| 2026-04-24 04:34 | 3.69206 | 98.87409 | 2230 ft | 223 kts | 304° |
| 2026-04-24 04:34 | 3.70124 | 98.86080 | 2412 ft | 241 kts | 305° |
| 2026-04-24 04:34 | 3.71141 | 98.84692 | 2688 ft | 253 kts | 307° |
| 2026-04-24 04:34 | 3.72199 | 98.83265 | 3130 ft | 256 kts | 306° |
| 2026-04-24 04:35 | 3.73257 | 98.81816 | 3626 ft | 260 kts | 307° |
| 2026-04-24 04:35 | 3.74375 | 98.80354 | 3990 ft | 269 kts | 309° |
| 2026-04-24 04:35 | 3.75556 | 98.78876 | 4482 ft | 274 kts | 309° |
| 2026-04-24 04:35 | 3.76771 | 98.77393 | 5069 ft | 276 kts | 310° |
| 2026-04-24 04:36 | 3.78005 | 98.75909 | 5650 ft | 278 kts | 309° |
| 2026-04-24 04:36 | 3.79034 | 98.74254 | 6193 ft | 282 kts | 292° |
| 2026-04-24 04:36 | 3.79500 | 98.72343 | 6782 ft | 285 kts | 276° |
| 2026-04-24 04:36 | 3.79617 | 98.70360 | 7390 ft | 287 kts | 271° |
| 2026-04-24 04:37 | 3.79650 | 98.68356 | 7972 ft | 290 kts | 270° |
| 2026-04-24 04:37 | 3.79664 | 98.66328 | 8554 ft | 292 kts | 270° |
| 2026-04-24 04:37 | 3.79672 | 98.64289 | 9154 ft | 294 kts | 270° |
| 2026-04-24 04:37 | 3.79679 | 98.62230 | 9731 ft | 297 kts | 270° |
| 2026-04-24 04:38 | 3.79685 | 98.60153 | 10293 ft | 300 kts | 270° |
| 2026-04-24 04:38 | 3.79692 | 98.58024 | 10615 ft | 313 kts | 270° |
| 2026-04-24 04:38 | 3.79699 | 98.55788 | 10822 ft | 328 kts | 270° |
| 2026-04-24 04:38 | 3.79708 | 98.53450 | 11025 ft | 343 kts | 270° |
| 2026-04-24 04:39 | 3.79715 | 98.51010 | 11216 ft | 358 kts | 270° |
| 2026-04-24 04:39 | 3.79722 | 98.48474 | 11401 ft | 371 kts | 270° |
| 2026-04-24 04:39 | 3.79729 | 98.45861 | 11738 ft | 378 kts | 270° |
| 2026-04-24 04:39 | 3.79738 | 98.43214 | 12195 ft | 382 kts | 270° |
| 2026-04-24 04:40 | 3.79746 | 98.40541 | 12668 ft | 385 kts | 270° |
| 2026-04-24 04:40 | 3.79754 | 98.37845 | 13139 ft | 389 kts | 270° |
| 2026-04-24 04:40 | 3.79762 | 98.35164 | 13592 ft | 392 kts | 270° |
| 2026-04-24 04:40 | 3.79770 | 98.32425 | 14017 ft | 396 kts | 269° |
| 2026-04-24 04:41 | 3.79779 | 98.29657 | 14434 ft | 399 kts | 269° |
| 2026-04-24 04:41 | 3.79787 | 98.26864 | 14845 ft | 403 kts | 269° |
| 2026-04-24 04:41 | 3.79794 | 98.24045 | 15258 ft | 406 kts | 269° |
| 2026-04-24 04:41 | 3.79802 | 98.21205 | 15663 ft | 410 kts | 269° |
| 2026-04-24 04:42 | 3.79809 | 98.18332 | 16054 ft | 413 kts | 269° |
| 2026-04-24 04:42 | 3.79817 | 98.15450 | 16441 ft | 416 kts | 269° |
| 2026-04-24 04:42 | 3.79825 | 98.12539 | 16819 ft | 419 kts | 269° |
| 2026-04-24 04:42 | 3.79834 | 98.09609 | 17178 ft | 423 kts | 269° |
| 2026-04-24 04:43 | 3.79841 | 98.06654 | 17532 ft | 426 kts | 269° |
| 2026-04-24 04:43 | 3.79849 | 98.03684 | 17880 ft | 429 kts | 269° |
| 2026-04-24 04:43 | 3.79856 | 98.00690 | 18229 ft | 431 kts | 269° |
| 2026-04-24 04:43 | 3.79865 | 97.97674 | 18577 ft | 434 kts | 269° |
| 2026-04-24 04:44 | 3.79872 | 97.94650 | 18948 ft | 436 kts | 269° |
| 2026-04-24 04:44 | 3.79879 | 97.91612 | 19322 ft | 437 kts | 269° |
| 2026-04-24 04:44 | 3.79887 | 97.88566 | 19681 ft | 439 kts | 269° |
| 2026-04-24 04:44 | 3.79896 | 97.85498 | 20044 ft | 441 kts | 269° |
| 2026-04-24 04:45 | 3.79903 | 97.82477 | 20383 ft | 441 kts | 269° |
| 2026-04-24 04:45 | 3.79909 | 97.79399 | 20668 ft | 443 kts | 269° |
| 2026-04-24 04:45 | 3.79915 | 97.76307 | 20972 ft | 445 kts | 269° |
| 2026-04-24 04:45 | 3.79921 | 97.73206 | 21266 ft | 446 kts | 269° |
| 2026-04-24 04:46 | 3.79928 | 97.70091 | 21549 ft | 448 kts | 269° |
| 2026-04-24 04:46 | 3.79935 | 97.66966 | 21831 ft | 449 kts | 269° |
| 2026-04-24 04:46 | 3.79942 | 97.63830 | 22102 ft | 451 kts | 269° |
| 2026-04-24 04:46 | 3.79948 | 97.60685 | 22368 ft | 453 kts | 269° |
| 2026-04-24 04:47 | 3.79955 | 97.57529 | 22644 ft | 454 kts | 269° |
| 2026-04-24 04:47 | 3.79961 | 97.54364 | 22928 ft | 455 kts | 269° |
| 2026-04-24 04:47 | 3.79968 | 97.51191 | 23190 ft | 457 kts | 269° |
| 2026-04-24 04:47 | 3.79974 | 97.48009 | 23456 ft | 458 kts | 269° |
| 2026-04-24 04:48 | 3.79979 | 97.44815 | 23687 ft | 459 kts | 269° |
| 2026-04-24 04:48 | 3.79985 | 97.41611 | 23926 ft | 461 kts | 269° |
| 2026-04-24 04:48 | 3.79989 | 97.38396 | 24169 ft | 462 kts | 269° |
| 2026-04-24 04:48 | 3.79994 | 97.35175 | 24400 ft | 464 kts | 269° |
| 2026-04-24 04:49 | 3.80001 | 97.31938 | 24628 ft | 466 kts | 269° |
| 2026-04-24 04:49 | 3.80007 | 97.28691 | 24870 ft | 467 kts | 269° |
| 2026-04-24 04:49 | 3.80013 | 97.25474 | 25110 ft | 468 kts | 269° |
| 2026-04-24 04:49 | 3.80019 | 97.22210 | 25348 ft | 470 kts | 269° |
| 2026-04-24 04:50 | 3.80025 | 97.18936 | 25591 ft | 471 kts | 269° |
| 2026-04-24 04:50 | 3.80030 | 97.15653 | 25817 ft | 473 kts | 269° |
| 2026-04-24 04:50 | 3.80036 | 97.12357 | 26039 ft | 474 kts | 269° |
| 2026-04-24 04:50 | 3.80041 | 97.09048 | 26277 ft | 476 kts | 269° |
| 2026-04-24 04:51 | 3.80046 | 97.05729 | 26498 ft | 478 kts | 269° |
| 2026-04-24 04:51 | 3.80050 | 97.02398 | 26718 ft | 479 kts | 269° |
| 2026-04-24 04:51 | 3.80055 | 96.99058 | 26952 ft | 480 kts | 269° |
| 2026-04-24 04:51 | 3.80075 | 96.95716 | 27172 ft | 482 kts | 271° |
| 2026-04-24 04:52 | 3.80417 | 96.92374 | 27416 ft | 484 kts | 279° |
| 2026-04-24 04:52 | 3.81205 | 96.89091 | 27632 ft | 486 kts | 285° |
| 2026-04-24 04:52 | 3.82175 | 96.85839 | 27855 ft | 488 kts | 287° |
| 2026-04-24 04:52 | 3.83239 | 96.82615 | 28075 ft | 489 kts | 288° |
| 2026-04-24 04:53 | 3.84352 | 96.79390 | 28288 ft | 491 kts | 288° |
| 2026-04-24 04:53 | 3.85482 | 96.76161 | 28493 ft | 492 kts | 288° |
| 2026-04-24 04:53 | 3.86614 | 96.72921 | 28725 ft | 493 kts | 288° |
| 2026-04-24 04:53 | 3.87740 | 96.69672 | 28930 ft | 495 kts | 288° |
| 2026-04-24 04:54 | 3.88862 | 96.66411 | 29132 ft | 496 kts | 288° |
| 2026-04-24 04:54 | 3.89980 | 96.63138 | 29314 ft | 497 kts | 288° |
| 2026-04-24 04:54 | 3.91098 | 96.59856 | 29506 ft | 498 kts | 288° |
| 2026-04-24 04:54 | 3.92215 | 96.56568 | 29750 ft | 498 kts | 288° |
| 2026-04-24 04:55 | 3.93328 | 96.53289 | 30043 ft | 497 kts | 288° |
| 2026-04-24 04:55 | 3.94440 | 96.50020 | 30346 ft | 495 kts | 288° |
| 2026-04-24 04:55 | 3.95547 | 96.46759 | 30611 ft | 494 kts | 288° |
| 2026-04-24 04:55 | 3.96653 | 96.43505 | 30867 ft | 493 kts | 288° |
| 2026-04-24 04:56 | 3.97757 | 96.40254 | 31129 ft | 493 kts | 288° |
| 2026-04-24 04:56 | 3.98860 | 96.37008 | 31375 ft | 492 kts | 288° |
| 2026-04-24 04:56 | 3.99961 | 96.33766 | 31618 ft | 491 kts | 288° |
| 2026-04-24 04:56 | 4.01061 | 96.30526 | 31870 ft | 491 kts | 288° |
| 2026-04-24 04:57 | 4.02159 | 96.27293 | 32108 ft | 490 kts | 288° |
| 2026-04-24 04:57 | 4.03257 | 96.24065 | 32331 ft | 489 kts | 288° |
| 2026-04-24 04:57 | 4.04350 | 96.20846 | 32569 ft | 489 kts | 288° |
| 2026-04-24 04:57 | 4.05444 | 96.17623 | 32809 ft | 488 kts | 288° |
| 2026-04-24 04:58 | 4.06535 | 96.14407 | 33036 ft | 487 kts | 288° |
| 2026-04-24 04:58 | 4.07623 | 96.11201 | 33275 ft | 486 kts | 288° |
| 2026-04-24 04:58 | 4.08711 | 96.07996 | 33484 ft | 486 kts | 288° |
| 2026-04-24 04:58 | 4.09797 | 96.04792 | 33698 ft | 485 kts | 288° |
| 2026-04-24 04:59 | 4.10867 | 96.01637 | 33843 ft | 485 kts | 288° |
| 2026-04-24 04:59 | 4.11950 | 95.98441 | 33860 ft | 484 kts | 288° |
| 2026-04-24 04:59 | 4.14109 | 95.92076 | 33860 ft | 482 kts | 288° |
| 2026-04-24 05:00 | 4.16269 | 95.85705 | 33860 ft | 483 kts | 288° |
| 2026-04-24 05:00 | 4.18428 | 95.79335 | 33860 ft | 483 kts | 288° |
| 2026-04-24 05:01 | 4.20585 | 95.72970 | 33860 ft | 483 kts | 288° |
| 2026-04-24 05:01 | 4.22743 | 95.66598 | 33860 ft | 483 kts | 288° |
| 2026-04-24 05:02 | 4.24887 | 95.60266 | 33860 ft | 483 kts | 288° |
| 2026-04-24 05:02 | 4.27059 | 95.53850 | 33860 ft | 483 kts | 288° |
| 2026-04-24 05:03 | 4.29203 | 95.47516 | 33860 ft | 483 kts | 288° |
| 2026-04-24 05:03 | 4.31361 | 95.41138 | 33860 ft | 484 kts | 288° |
| 2026-04-24 05:04 | 4.33522 | 95.34750 | 33860 ft | 484 kts | 288° |
| 2026-04-24 05:04 | 4.35680 | 95.28364 | 33860 ft | 484 kts | 288° |
| 2026-04-24 05:05 | 4.37839 | 95.21972 | 33860 ft | 484 kts | 288° |
| 2026-04-24 05:05 | 4.39997 | 95.15585 | 33860 ft | 484 kts | 289° |
| 2026-04-24 05:06 | 4.42157 | 95.09191 | 33860 ft | 485 kts | 289° |
| 2026-04-24 05:06 | 4.44321 | 95.02784 | 33860 ft | 485 kts | 289° |
| 2026-04-24 05:07 | 4.46484 | 94.96376 | 33859 ft | 485 kts | 289° |
| 2026-04-24 05:07 | 4.48632 | 94.90012 | 33860 ft | 485 kts | 289° |
| 2026-04-24 05:08 | 4.50794 | 94.83604 | 33860 ft | 486 kts | 289° |
| 2026-04-24 05:08 | 4.52959 | 94.77186 | 33860 ft | 486 kts | 289° |
| 2026-04-24 05:09 | 4.55123 | 94.70768 | 33860 ft | 486 kts | 289° |
| 2026-04-24 05:09 | 4.57288 | 94.64349 | 33860 ft | 486 kts | 289° |
| 2026-04-24 05:10 | 4.59453 | 94.57921 | 33860 ft | 487 kts | 289° |
| 2026-04-24 05:10 | 4.61617 | 94.51490 | 33860 ft | 487 kts | 289° |
| 2026-04-24 05:11 | 4.63779 | 94.45067 | 33860 ft | 487 kts | 289° |
| 2026-04-24 05:11 | 4.65944 | 94.38635 | 33860 ft | 487 kts | 289° |
| 2026-04-24 05:12 | 4.68109 | 94.32200 | 33860 ft | 487 kts | 289° |
| 2026-04-24 05:12 | 4.70272 | 94.25770 | 33860 ft | 487 kts | 289° |
| 2026-04-24 05:13 | 4.73503 | 94.16161 | 33860 ft | 487 kts | 289° |
| 2026-04-24 05:14 | 4.75665 | 94.09728 | 33860 ft | 487 kts | 289° |
| 2026-04-24 05:14 | 4.77828 | 94.03292 | 33860 ft | 487 kts | 289° |
| 2026-04-24 05:15 | 4.79986 | 93.96867 | 33860 ft | 487 kts | 289° |
| 2026-04-24 05:15 | 4.82143 | 93.90432 | 33860 ft | 487 kts | 289° |
| 2026-04-24 05:16 | 4.84307 | 93.83992 | 33859 ft | 487 kts | 289° |
| 2026-04-24 05:16 | 4.86471 | 93.77558 | 33860 ft | 487 kts | 289° |
| 2026-04-24 05:17 | 4.88629 | 93.71129 | 33859 ft | 487 kts | 289° |
| 2026-04-24 05:17 | 4.90785 | 93.64693 | 33860 ft | 487 kts | 289° |
| 2026-04-24 05:18 | 4.92938 | 93.58256 | 33859 ft | 487 kts | 289° |
| 2026-04-24 05:18 | 4.95093 | 93.51823 | 33860 ft | 487 kts | 289° |
| 2026-04-24 05:19 | 4.97249 | 93.45388 | 33860 ft | 486 kts | 289° |
| 2026-04-24 05:19 | 4.99038 | 93.40042 | 33860 ft | 486 kts | 289° |
| 2026-04-24 05:20 | 5.01540 | 93.32567 | 33860 ft | 486 kts | 289° |
| 2026-04-24 05:20 | 5.03693 | 93.26136 | 33859 ft | 486 kts | 289° |
| 2026-04-24 05:21 | 5.05844 | 93.19703 | 33860 ft | 486 kts | 289° |
| 2026-04-24 05:21 | 5.07995 | 93.13268 | 33860 ft | 486 kts | 289° |
| 2026-04-24 05:22 | 5.09783 | 93.07916 | 33860 ft | 486 kts | 289° |
| 2026-04-24 05:22 | 5.11931 | 93.01489 | 33860 ft | 486 kts | 289° |
| 2026-04-24 05:23 | 5.14079 | 92.95059 | 33860 ft | 486 kts | 289° |
| 2026-04-24 05:23 | 5.16223 | 92.88634 | 33860 ft | 486 kts | 289° |
| 2026-04-24 05:24 | 5.18369 | 92.82204 | 33860 ft | 486 kts | 289° |
| 2026-04-24 05:24 | 5.20517 | 92.75766 | 33860 ft | 486 kts | 289° |
| 2026-04-24 05:25 | 5.22661 | 92.69337 | 33860 ft | 486 kts | 289° |
| 2026-04-24 05:25 | 5.24791 | 92.62944 | 33860 ft | 486 kts | 289° |
| 2026-04-24 05:26 | 5.26935 | 92.56510 | 33860 ft | 486 kts | 289° |
| 2026-04-24 05:26 | 5.29077 | 92.50080 | 33859 ft | 486 kts | 289° |
| 2026-04-24 05:27 | 5.31218 | 92.43649 | 33860 ft | 486 kts | 289° |
| 2026-04-24 05:27 | 5.33358 | 92.37220 | 33860 ft | 486 kts | 289° |
| 2026-04-24 05:28 | 5.35500 | 92.30786 | 33860 ft | 486 kts | 289° |
| 2026-04-24 05:28 | 5.37640 | 92.24352 | 33860 ft | 486 kts | 289° |
| 2026-04-24 05:29 | 5.39778 | 92.17915 | 33860 ft | 486 kts | 289° |
| 2026-04-24 05:29 | 5.41916 | 92.11482 | 33860 ft | 486 kts | 289° |
| 2026-04-24 05:30 | 5.44056 | 92.05048 | 33860 ft | 486 kts | 289° |
| 2026-04-24 05:30 | 5.46192 | 91.98616 | 33860 ft | 486 kts | 289° |
| 2026-04-24 05:31 | 5.48327 | 91.92185 | 33860 ft | 486 kts | 289° |
| 2026-04-24 05:31 | 5.50463 | 91.85744 | 33860 ft | 486 kts | 289° |
| 2026-04-24 05:32 | 5.52583 | 91.79354 | 33860 ft | 486 kts | 289° |
| 2026-04-24 05:32 | 5.54716 | 91.72918 | 33868 ft | 486 kts | 289° |
| 2026-04-24 05:33 | 5.56850 | 91.66481 | 33869 ft | 486 kts | 289° |
| 2026-04-24 05:33 | 5.58981 | 91.60051 | 33869 ft | 486 kts | 289° |
| 2026-04-24 05:34 | 5.62178 | 91.50394 | 33869 ft | 486 kts | 289° |
| 2026-04-24 05:34 | 5.64307 | 91.43961 | 33869 ft | 486 kts | 289° |
| 2026-04-24 05:35 | 5.66437 | 91.37524 | 33869 ft | 486 kts | 289° |
| 2026-04-24 05:35 | 5.68567 | 91.31084 | 33869 ft | 486 kts | 289° |
| 2026-04-24 05:36 | 5.70683 | 91.24692 | 33869 ft | 486 kts | 289° |
| 2026-04-24 05:36 | 5.72808 | 91.18258 | 33869 ft | 486 kts | 289° |
| 2026-04-24 05:37 | 5.74932 | 91.11822 | 33869 ft | 485 kts | 289° |
| 2026-04-24 05:37 | 5.77056 | 91.05388 | 33869 ft | 486 kts | 289° |
| 2026-04-24 05:38 | 5.79182 | 90.98949 | 33869 ft | 486 kts | 289° |
| 2026-04-24 05:38 | 5.81307 | 90.92507 | 33869 ft | 486 kts | 289° |
| 2026-04-24 05:39 | 5.83431 | 90.86062 | 33869 ft | 486 kts | 289° |
| 2026-04-24 05:39 | 5.85553 | 90.79623 | 33869 ft | 486 kts | 289° |
| 2026-04-24 05:40 | 5.87678 | 90.73176 | 33869 ft | 486 kts | 289° |
| 2026-04-24 05:40 | 5.89802 | 90.66725 | 33869 ft | 486 kts | 289° |
| 2026-04-24 05:41 | 5.91923 | 90.60283 | 33869 ft | 486 kts | 289° |
| 2026-04-24 05:41 | 5.94044 | 90.53831 | 33869 ft | 487 kts | 289° |
| 2026-04-24 05:42 | 5.96170 | 90.47372 | 33875 ft | 487 kts | 289° |
| 2026-04-24 05:42 | 5.98278 | 90.40963 | 33878 ft | 487 kts | 289° |
| 2026-04-24 05:43 | 6.00402 | 90.34506 | 33878 ft | 487 kts | 289° |
| 2026-04-24 05:43 | 6.02523 | 90.28044 | 33878 ft | 487 kts | 289° |
| 2026-04-24 05:44 | 6.04645 | 90.21580 | 33878 ft | 487 kts | 289° |
| 2026-04-24 05:44 | 6.06765 | 90.15118 | 33881 ft | 487 kts | 289° |
| 2026-04-24 05:45 | 6.08887 | 90.08651 | 33878 ft | 487 kts | 289° |
| 2026-04-24 05:45 | 6.11008 | 90.02182 | 33881 ft | 487 kts | 289° |
| 2026-04-24 05:46 | 6.13128 | 89.95715 | 33878 ft | 487 kts | 289° |
| 2026-04-24 05:46 | 6.15245 | 89.89251 | 33878 ft | 487 kts | 289° |
| 2026-04-24 05:47 | 6.17363 | 89.82782 | 33878 ft | 487 kts | 289° |
| 2026-04-24 05:47 | 6.19467 | 89.76354 | 33878 ft | 487 kts | 289° |
| 2026-04-24 05:48 | 6.21584 | 89.69885 | 33878 ft | 487 kts | 289° |
| 2026-04-24 05:48 | 6.23698 | 89.63421 | 33878 ft | 487 kts | 289° |
| 2026-04-24 05:49 | 6.25812 | 89.56953 | 33878 ft | 487 kts | 289° |
| 2026-04-24 05:49 | 6.27927 | 89.50481 | 33878 ft | 487 kts | 289° |
| 2026-04-24 05:50 | 6.30038 | 89.44016 | 33878 ft | 487 kts | 289° |
| 2026-04-24 05:50 | 6.32152 | 89.37542 | 33878 ft | 487 kts | 289° |
| 2026-04-24 05:51 | 6.34262 | 89.31072 | 33878 ft | 487 kts | 289° |
| 2026-04-24 05:51 | 6.36370 | 89.24604 | 33885 ft | 487 kts | 289° |
| 2026-04-24 05:52 | 6.38480 | 89.18132 | 33893 ft | 487 kts | 289° |
| 2026-04-24 05:52 | 6.40588 | 89.11662 | 33886 ft | 487 kts | 289° |
| 2026-04-24 05:53 | 6.42678 | 89.05246 | 33885 ft | 485 kts | 289° |
| 2026-04-24 05:53 | 6.44776 | 88.98801 | 33891 ft | 485 kts | 289° |
| 2026-04-24 05:54 | 6.46873 | 88.92356 | 33885 ft | 485 kts | 289° |
| 2026-04-24 05:54 | 6.48967 | 88.85918 | 33886 ft | 485 kts | 289° |
| 2026-04-24 05:55 | 6.51062 | 88.79472 | 33890 ft | 485 kts | 289° |
| 2026-04-24 05:55 | 6.53158 | 88.73021 | 33885 ft | 485 kts | 289° |
| 2026-04-24 05:56 | 6.55254 | 88.66568 | 33889 ft | 485 kts | 289° |
| 2026-04-24 05:56 | 6.57350 | 88.60111 | 33885 ft | 486 kts | 289° |
| 2026-04-24 05:57 | 6.59446 | 88.53653 | 33887 ft | 486 kts | 289° |
| 2026-04-24 05:57 | 6.61541 | 88.47195 | 33885 ft | 486 kts | 288° |
| 2026-04-24 05:58 | 6.63633 | 88.40736 | 33893 ft | 485 kts | 288° |
| 2026-04-24 05:58 | 6.65725 | 88.34278 | 33885 ft | 485 kts | 288° |
| 2026-04-24 05:59 | 6.67815 | 88.27822 | 33890 ft | 485 kts | 288° |
| 2026-04-24 05:59 | 6.69891 | 88.21408 | 33885 ft | 485 kts | 288° |
| 2026-04-24 06:00 | 6.71980 | 88.14950 | 33892 ft | 485 kts | 288° |
| 2026-04-24 06:00 | 6.74065 | 88.08496 | 33887 ft | 485 kts | 288° |
| 2026-04-24 06:01 | 6.76154 | 88.02031 | 33891 ft | 485 kts | 288° |
| 2026-04-24 06:01 | 6.78240 | 87.95577 | 33885 ft | 485 kts | 288° |
| 2026-04-24 06:02 | 6.80327 | 87.89116 | 33888 ft | 486 kts | 288° |
| 2026-04-24 06:02 | 6.82414 | 87.82652 | 33885 ft | 486 kts | 288° |
| 2026-04-24 06:03 | 6.84498 | 87.76191 | 33885 ft | 486 kts | 288° |
| 2026-04-24 06:03 | 6.86584 | 87.69721 | 33889 ft | 486 kts | 288° |
| 2026-04-24 06:04 | 6.88667 | 87.63252 | 33885 ft | 486 kts | 288° |
| 2026-04-24 06:04 | 6.90749 | 87.56784 | 33895 ft | 486 kts | 288° |
| 2026-04-24 06:05 | 6.92816 | 87.50363 | 33886 ft | 486 kts | 288° |
| 2026-04-24 06:05 | 6.94897 | 87.43899 | 33885 ft | 486 kts | 288° |
| 2026-04-24 06:06 | 6.96977 | 87.37429 | 33892 ft | 486 kts | 288° |
| 2026-04-24 06:06 | 6.99057 | 87.30958 | 33885 ft | 486 kts | 288° |
| 2026-04-24 06:07 | 7.01135 | 87.24491 | 33885 ft | 485 kts | 288° |
| 2026-04-24 06:07 | 7.03210 | 87.18028 | 33895 ft | 485 kts | 287° |
| 2026-04-24 06:08 | 7.05285 | 87.11561 | 33885 ft | 486 kts | 287° |
| 2026-04-24 06:08 | 7.07363 | 87.05083 | 33879 ft | 486 kts | 287° |
| 2026-04-24 06:09 | 7.09435 | 86.98618 | 33878 ft | 485 kts | 287° |
| 2026-04-24 06:09 | 7.11505 | 86.92159 | 33878 ft | 484 kts | 287° |
| 2026-04-24 06:10 | 7.13574 | 86.85703 | 33878 ft | 484 kts | 287° |
| 2026-04-24 06:11 | 7.16668 | 86.76027 | 33878 ft | 484 kts | 287° |
| 2026-04-24 06:11 | 7.18733 | 86.69570 | 33878 ft | 484 kts | 287° |
| 2026-04-24 06:12 | 7.20798 | 86.63111 | 33880 ft | 484 kts | 287° |
| 2026-04-24 06:12 | 7.22861 | 86.56654 | 33878 ft | 484 kts | 287° |
| 2026-04-24 06:13 | 7.24573 | 86.51292 | 33878 ft | 484 kts | 287° |
| 2026-04-24 06:13 | 7.26967 | 86.43790 | 33878 ft | 484 kts | 287° |
| 2026-04-24 06:14 | 7.29025 | 86.37342 | 33878 ft | 484 kts | 287° |
| 2026-04-24 06:14 | 7.30735 | 86.31979 | 33878 ft | 484 kts | 287° |
| 2026-04-24 06:15 | 7.33137 | 86.24436 | 33878 ft | 484 kts | 287° |
| 2026-04-24 06:15 | 7.34858 | 86.19028 | 33878 ft | 483 kts | 287° |
| 2026-04-24 06:16 | 7.36899 | 86.12621 | 33878 ft | 483 kts | 287° |
| 2026-04-24 06:16 | 7.38951 | 86.06173 | 33878 ft | 483 kts | 287° |
| 2026-04-24 06:17 | 7.41001 | 85.99724 | 33878 ft | 483 kts | 287° |
| 2026-04-24 06:17 | 7.43047 | 85.93285 | 33878 ft | 483 kts | 287° |
| 2026-04-24 06:18 | 7.45094 | 85.86841 | 33885 ft | 483 kts | 287° |
| 2026-04-24 06:18 | 7.47138 | 85.80400 | 33893 ft | 483 kts | 287° |
| 2026-04-24 06:19 | 7.49180 | 85.73965 | 33885 ft | 482 kts | 287° |
| 2026-04-24 06:19 | 7.51222 | 85.67525 | 33886 ft | 482 kts | 287° |
| 2026-04-24 06:20 | 7.53264 | 85.61082 | 33893 ft | 482 kts | 287° |
| 2026-04-24 06:20 | 7.55305 | 85.54640 | 33885 ft | 483 kts | 287° |
| 2026-04-24 06:21 | 7.57346 | 85.48196 | 33888 ft | 482 kts | 286° |
| 2026-04-24 06:21 | 7.59381 | 85.41762 | 33885 ft | 482 kts | 286° |
| 2026-04-24 06:22 | 7.61417 | 85.35318 | 33890 ft | 482 kts | 286° |
| 2026-04-24 06:22 | 7.63441 | 85.28914 | 33893 ft | 482 kts | 286° |
| 2026-04-24 06:23 | 7.65474 | 85.22478 | 33885 ft | 482 kts | 286° |
| 2026-04-24 06:23 | 7.67508 | 85.16036 | 33890 ft | 482 kts | 286° |
| 2026-04-24 06:24 | 7.69541 | 85.09594 | 33890 ft | 482 kts | 286° |
| 2026-04-24 06:24 | 7.71571 | 85.03155 | 33885 ft | 482 kts | 286° |
| 2026-04-24 06:25 | 7.73598 | 84.96718 | 33889 ft | 482 kts | 286° |
| 2026-04-24 06:25 | 7.75626 | 84.90280 | 33885 ft | 482 kts | 286° |
| 2026-04-24 06:26 | 7.77654 | 84.83840 | 33886 ft | 482 kts | 286° |
| 2026-04-24 06:26 | 7.79679 | 84.77405 | 33888 ft | 481 kts | 286° |
| 2026-04-24 06:27 | 7.81702 | 84.70970 | 33890 ft | 481 kts | 286° |
| 2026-04-24 06:27 | 7.83724 | 84.64536 | 33886 ft | 481 kts | 286° |
| 2026-04-24 06:28 | 7.85742 | 84.58109 | 33886 ft | 481 kts | 285° |
| 2026-04-24 06:28 | 7.87760 | 84.51678 | 33894 ft | 481 kts | 285° |
| 2026-04-24 06:29 | 7.89779 | 84.45249 | 33885 ft | 481 kts | 285° |
| 2026-04-24 06:29 | 7.91795 | 84.38819 | 33885 ft | 481 kts | 285° |
| 2026-04-24 06:30 | 7.93795 | 84.32433 | 33895 ft | 480 kts | 285° |
| 2026-04-24 06:30 | 7.95807 | 84.26003 | 33886 ft | 481 kts | 285° |
| 2026-04-24 06:31 | 7.97819 | 84.19580 | 33892 ft | 480 kts | 285° |
| 2026-04-24 06:31 | 7.99828 | 84.13155 | 33886 ft | 480 kts | 285° |
| 2026-04-24 06:32 | 8.01837 | 84.06729 | 33885 ft | 480 kts | 285° |
| 2026-04-24 06:32 | 8.03845 | 84.00301 | 33891 ft | 480 kts | 285° |
| 2026-04-24 06:33 | 8.05849 | 83.93878 | 33885 ft | 480 kts | 285° |
| 2026-04-24 06:33 | 8.07853 | 83.87452 | 33895 ft | 480 kts | 285° |
| 2026-04-24 06:34 | 8.09857 | 83.81023 | 33885 ft | 480 kts | 285° |
| 2026-04-24 06:34 | 8.11861 | 83.74597 | 33895 ft | 480 kts | 285° |
| 2026-04-24 06:35 | 8.13864 | 83.68169 | 33885 ft | 480 kts | 285° |
| 2026-04-24 06:35 | 8.15864 | 83.61747 | 33890 ft | 480 kts | 285° |
| 2026-04-24 06:36 | 8.17861 | 83.55327 | 33885 ft | 479 kts | 285° |
| 2026-04-24 06:36 | 8.19856 | 83.48908 | 33887 ft | 479 kts | 285° |
| 2026-04-24 06:37 | 8.21850 | 83.42488 | 33888 ft | 479 kts | 285° |
| 2026-04-24 06:37 | 8.23841 | 83.36075 | 33885 ft | 479 kts | 285° |
| 2026-04-24 06:38 | 8.25817 | 83.29709 | 33894 ft | 478 kts | 285° |
| 2026-04-24 06:38 | 8.27806 | 83.23297 | 33886 ft | 478 kts | 285° |
| 2026-04-24 06:39 | 8.29791 | 83.16893 | 33886 ft | 477 kts | 285° |
| 2026-04-24 06:39 | 8.31772 | 83.10497 | 33889 ft | 477 kts | 285° |
| 2026-04-24 06:40 | 8.33749 | 83.04109 | 33885 ft | 477 kts | 285° |
| 2026-04-24 06:40 | 8.35727 | 82.97718 | 33885 ft | 477 kts | 285° |
| 2026-04-24 06:41 | 8.37703 | 82.91326 | 33887 ft | 477 kts | 285° |
| 2026-04-24 06:41 | 8.39676 | 82.84939 | 33885 ft | 476 kts | 285° |
| 2026-04-24 06:42 | 8.41649 | 82.78551 | 33893 ft | 476 kts | 285° |
| 2026-04-24 06:42 | 8.43618 | 82.72165 | 33878 ft | 476 kts | 285° |
| 2026-04-24 06:43 | 8.45586 | 82.65783 | 33878 ft | 476 kts | 284° |
| 2026-04-24 06:43 | 8.47555 | 82.59398 | 33878 ft | 476 kts | 284° |
| 2026-04-24 06:44 | 8.49523 | 82.53012 | 33878 ft | 476 kts | 284° |
| 2026-04-24 06:44 | 8.51488 | 82.46627 | 33878 ft | 476 kts | 284° |
| 2026-04-24 06:45 | 8.53439 | 82.40286 | 33878 ft | 476 kts | 284° |
| 2026-04-24 06:45 | 8.55402 | 82.33901 | 33878 ft | 476 kts | 284° |
| 2026-04-24 06:46 | 8.57362 | 82.27520 | 33878 ft | 476 kts | 284° |
| 2026-04-24 06:46 | 8.59323 | 82.21133 | 33878 ft | 476 kts | 284° |
| 2026-04-24 06:47 | 8.61285 | 82.14740 | 33878 ft | 476 kts | 284° |
| 2026-04-24 06:47 | 8.63245 | 82.08354 | 33878 ft | 476 kts | 284° |
| 2026-04-24 06:48 | 8.65200 | 82.01968 | 33878 ft | 476 kts | 284° |
| 2026-04-24 06:48 | 8.67155 | 81.95578 | 33878 ft | 476 kts | 284° |
| 2026-04-24 06:49 | 8.69111 | 81.89188 | 33879 ft | 476 kts | 284° |
| 2026-04-24 06:49 | 8.71068 | 81.82793 | 33874 ft | 476 kts | 284° |
| 2026-04-24 06:50 | 8.73023 | 81.76401 | 33869 ft | 476 kts | 284° |
| 2026-04-24 06:50 | 8.74977 | 81.70008 | 33869 ft | 476 kts | 284° |
| 2026-04-24 06:51 | 8.76928 | 81.63619 | 33868 ft | 476 kts | 284° |
| 2026-04-24 06:51 | 8.78878 | 81.57227 | 33869 ft | 476 kts | 284° |